Time;durP1;ratioP1;P1;durP2;ratioP2;P2;SDS_P1;SDS_P2;PMS_P1;PMS_P2;Temp;Humidity;BMP_temperature;BMP_pressure;BME280_temperature;BME280_humidity;BME280_pressure;Samples;Min_cycle;Max_cycle;Signal;HPM_P1;HPM_P2
2023/12/06 00:01:38;;;;;;;0.10;0.10;;;;;;;;;;4990512;28;20974;-82
2023/12/06 00:04:05;;;;;;;0.10;0.10;;;;;;;;;;5002341;28;20086;-80
2023/12/06 00:06:31;;;;;;;0.30;0.30;;;;;;;;;;5008476;28;20055;-81
2023/12/06 00:09:01;;;;;;;0.10;0.10;;;;;;;;;;5008324;28;20054;-81
2023/12/06 00:11:27;;;;;;;1.00;1.00;;;;;;;;;;4972098;28;20095;-82
2023/12/06 00:13:54;;;;;;;0.10;0.10;;;;;;;;;;5003043;28;20050;-80
2023/12/06 00:16:21;;;;;;;0.10;0.10;;;;;;;;;;5008563;28;20055;-81
2023/12/06 00:18:48;;;;;;;0.35;0.35;;;;;;;;;;5009777;28;20056;-81
2023/12/06 00:21:15;;;;;;;0.10;0.10;;;;;;;;;;5009651;28;20060;-80
2023/12/06 00:23:41;;;;;;;0.10;0.10;;;;;;;;;;5001347;28;20081;-81
2023/12/06 00:26:08;;;;;;;0.10;0.10;;;;;;;;;;5009795;28;20085;-82
2023/12/06 00:28:34;;;;;;;0.10;0.10;;;;;;;;;;5006128;28;20097;-83
2023/12/06 00:31:00;;;;;;;1.75;1.65;;;;;;;;;;5004506;28;20140;-81
2023/12/06 00:33:28;;;;;;;0.43;0.43;;;;;;;;;;5001772;28;20081;-81
2023/12/06 00:35:55;;;;;;;0.10;0.10;;;;;;;;;;5012751;28;20520;-81
2023/12/06 00:38:22;;;;;;;0.10;0.10;;;;;;;;;;5003004;28;20544;-81
2023/12/06 00:40:49;;;;;;;0.10;0.10;;;;;;;;;;5008760;28;20851;-80
2023/12/06 00:43:15;;;;;;;0.10;0.10;;;;;;;;;;4989363;28;20563;-82
2023/12/06 00:45:42;;;;;;;0.10;0.10;;;;;;;;;;5005372;28;20054;-81
2023/12/06 00:48:08;;;;;;;0.10;0.10;;;;;;;;;;5006311;28;20050;-80
2023/12/06 00:50:35;;;;;;;0.10;0.10;;;;;;;;;;4994465;28;20108;-80
2023/12/06 00:53:01;;;;;;;0.30;0.30;;;;;;;;;;4986050;28;20062;-80
2023/12/06 00:55:27;;;;;;;0.10;0.10;;;;;;;;;;4994415;28;20050;-80
2023/12/06 00:57:54;;;;;;;0.10;0.10;;;;;;;;;;5004590;28;20148;-81
2023/12/06 01:00:20;;;;;;;0.10;0.10;;;;;;;;;;5005840;28;20060;-80
2023/12/06 01:02:47;;;;;;;0.32;0.32;;;;;;;;;;5006293;28;20051;-81
2023/12/06 01:05:13;;;;;;;0.10;0.10;;;;;;;;;;4996360;28;20505;-81
2023/12/06 01:07:40;;;;;;;0.10;0.10;;;;;;;;;;5001217;28;20089;-82
2023/12/06 01:10:06;;;;;;;0.10;0.10;;;;;;;;;;4999397;28;20146;-82
2023/12/06 01:12:33;;;;;;;0.10;0.10;;;;;;;;;;4987733;28;20055;-82
2023/12/06 01:14:59;;;;;;;0.10;0.10;;;;;;;;;;5009814;28;20887;-82
2023/12/06 01:17:26;;;;;;;0.10;0.10;;;;;;;;;;5010866;28;20058;-82
2023/12/06 01:19:53;;;;;;;0.10;0.10;;;;;;;;;;4987186;28;20145;-82
2023/12/06 01:22:19;;;;;;;0.20;0.20;;;;;;;;;;5009590;28;20073;-81
2023/12/06 01:24:46;;;;;;;0.32;0.32;;;;;;;;;;4996016;28;20066;-82
2023/12/06 01:27:13;;;;;;;0.10;0.10;;;;;;;;;;5006423;28;20061;-82
2023/12/06 01:29:39;;;;;;;0.20;0.20;;;;;;;;;;5009608;28;20245;-82
2023/12/06 01:32:06;;;;;;;0.20;0.20;;;;;;;;;;4988772;28;20054;-80
2023/12/06 01:34:32;;;;;;;0.10;0.10;;;;;;;;;;5010046;28;20065;-82
2023/12/06 01:36:59;;;;;;;0.10;0.10;;;;;;;;;;5010044;28;20142;-82
2023/12/06 01:39:25;;;;;;;0.10;0.10;;;;;;;;;;5009467;28;20058;-82
2023/12/06 01:41:53;;;;;;;0.20;0.20;;;;;;;;;;4993419;28;20078;-82
2023/12/06 01:44:19;;;;;;;0.43;0.43;;;;;;;;;;4991353;28;20050;-81
2023/12/06 01:46:46;;;;;;;0.10;0.10;;;;;;;;;;5001923;28;20058;-82
2023/12/06 01:49:13;;;;;;;0.10;0.10;;;;;;;;;;5010286;28;20048;-81
2023/12/06 01:51:40;;;;;;;0.10;0.10;;;;;;;;;;5008723;28;20064;-81
2023/12/06 01:54:06;;;;;;;0.10;0.10;;;;;;;;;;4994276;28;20055;-80
2023/12/06 01:56:33;;;;;;;0.10;0.10;;;;;;;;;;5011691;28;20663;-82
2023/12/06 01:58:59;;;;;;;0.10;0.10;;;;;;;;;;4991454;28;20122;-82
2023/12/06 02:01:25;;;;;;;0.20;0.20;;;;;;;;;;4995880;28;20067;-80
2023/12/06 02:03:52;;;;;;;0.10;0.10;;;;;;;;;;4993539;28;20039;-82
2023/12/06 02:06:19;;;;;;;0.10;0.10;;;;;;;;;;4990492;28;20054;-81
2023/12/06 02:08:45;;;;;;;0.10;0.10;;;;;;;;;;5005677;28;20098;-82
2023/12/06 02:11:12;;;;;;;0.10;0.10;;;;;;;;;;4991752;28;20152;-82
2023/12/06 02:13:39;;;;;;;0.20;0.20;;;;;;;;;;5010325;28;20062;-81
2023/12/06 02:16:06;;;;;;;0.10;0.10;;;;;;;;;;5011639;28;20042;-81
2023/12/06 02:18:33;;;;;;;0.10;0.10;;;;;;;;;;5002146;28;20078;-81
2023/12/06 02:20:59;;;;;;;0.10;0.10;;;;;;;;;;4989013;28;20867;-82
2023/12/06 02:23:30;;;;;;;0.10;0.10;;;;;;;;;;4985433;28;20058;-81
2023/12/06 02:25:57;;;;;;;0.10;0.10;;;;;;;;;;4994414;28;20058;-81
2023/12/06 02:28:23;;;;;;;0.10;0.10;;;;;;;;;;5009553;28;20058;-82
2023/12/06 02:30:50;;;;;;;1.58;1.48;;;;;;;;;;5010405;28;20101;-81
2023/12/06 02:33:16;;;;;;;3.03;1.50;;;;;;;;;;4990791;28;20058;-81
2023/12/06 02:35:46;;;;;;;0.10;0.10;;;;;;;;;;4991306;28;20967;-81
2023/12/06 02:38:14;;;;;;;0.10;0.10;;;;;;;;;;5007539;28;20062;-81
2023/12/06 02:40:42;;;;;;;0.20;0.20;;;;;;;;;;5007182;28;20054;-81
2023/12/06 02:43:09;;;;;;;0.10;0.10;;;;;;;;;;4993740;28;20057;-80
2023/12/06 02:45:35;;;;;;;0.10;0.10;;;;;;;;;;5001740;28;20065;-81
2023/12/06 02:48:04;;;;;;;4.20;1.30;;;;;;;;;;5009801;28;20041;-80
2023/12/06 02:50:30;;;;;;;0.10;0.10;;;;;;;;;;4992773;28;20582;-82
2023/12/06 02:52:57;;;;;;;0.10;0.10;;;;;;;;;;5007192;28;20073;-82
2023/12/06 02:55:23;;;;;;;0.10;0.10;;;;;;;;;;5007544;28;20535;-82
2023/12/06 02:57:50;;;;;;;0.10;0.10;;;;;;;;;;4992145;28;20058;-82
2023/12/06 03:00:16;;;;;;;0.10;0.10;;;;;;;;;;4987569;28;20452;-82
2023/12/06 03:02:43;;;;;;;0.17;0.17;;;;;;;;;;5003224;28;20059;-80
2023/12/06 03:05:09;;;;;;;0.10;0.10;;;;;;;;;;5009572;28;20050;-81
2023/12/06 03:07:36;;;;;;;0.20;0.20;;;;;;;;;;5012599;28;20039;-80
2023/12/06 03:10:03;;;;;;;0.10;0.10;;;;;;;;;;4998005;28;20058;-81
2023/12/06 03:12:29;;;;;;;0.10;0.10;;;;;;;;;;4997903;28;20062;-80
2023/12/06 03:14:56;;;;;;;1.25;1.20;;;;;;;;;;5012700;28;20050;-79
2023/12/06 03:17:22;;;;;;;2.05;1.88;;;;;;;;;;4994602;28;20054;-81
2023/12/06 03:19:49;;;;;;;0.10;0.10;;;;;;;;;;4995075;28;20800;-81
2023/12/06 03:22:16;;;;;;;0.10;0.10;;;;;;;;;;4994182;28;20954;-81
2023/12/06 03:24:42;;;;;;;0.10;0.10;;;;;;;;;;5010614;28;20054;-81
2023/12/06 03:27:09;;;;;;;0.28;0.28;;;;;;;;;;5010240;28;20058;-81
2023/12/06 03:29:35;;;;;;;0.85;0.85;;;;;;;;;;5012751;28;20058;-82
2023/12/06 03:32:01;;;;;;;0.10;0.10;;;;;;;;;;5010893;28;20579;-82
2023/12/06 03:34:28;;;;;;;0.52;0.52;;;;;;;;;;5011223;28;20571;-82
2023/12/06 03:36:54;;;;;;;0.10;0.10;;;;;;;;;;5009419;28;20577;-80
2023/12/06 03:39:21;;;;;;;0.10;0.10;;;;;;;;;;4995247;28;20067;-81
2023/12/06 03:41:48;;;;;;;0.10;0.10;;;;;;;;;;5010704;28;20038;-82
2023/12/06 03:44:14;;;;;;;0.10;0.10;;;;;;;;;;5076591;23;20046;-78
2023/12/06 03:46:41;;;;;;;0.10;0.10;;;;;;;;;;4975846;28;20066;-79
2023/12/06 03:49:11;;;;;;;0.10;0.10;;;;;;;;;;4991005;28;20066;-77
2023/12/06 03:51:41;;;;;;;0.10;0.10;;;;;;;;;;4990209;28;20102;-78
2023/12/06 03:54:07;;;;;;;0.10;0.10;;;;;;;;;;5002088;28;20311;-80
2023/12/06 03:56:34;;;;;;;0.10;0.10;;;;;;;;;;5002766;28;20058;-76
2023/12/06 03:59:00;;;;;;;0.10;0.10;;;;;;;;;;5008955;28;20059;-78
2023/12/06 04:01:26;;;;;;;0.10;0.10;;;;;;;;;;5006866;28;20042;-78
2023/12/06 04:03:53;;;;;;;0.10;0.10;;;;;;;;;;5004052;28;20484;-79
2023/12/06 04:06:19;;;;;;;0.50;0.50;;;;;;;;;;5004591;28;20092;-80
2023/12/06 04:08:46;;;;;;;0.90;0.90;;;;;;;;;;5004412;28;20500;-79
2023/12/06 04:11:12;;;;;;;0.30;0.30;;;;;;;;;;4994491;28;20065;-79
2023/12/06 04:13:38;;;;;;;0.10;0.10;;;;;;;;;;5007095;28;20133;-79
2023/12/06 04:16:06;;;;;;;0.10;0.10;;;;;;;;;;5006461;28;20043;-77
2023/12/06 04:18:33;;;;;;;0.10;0.10;;;;;;;;;;5006325;28;20572;-78
2023/12/06 04:20:59;;;;;;;0.10;0.10;;;;;;;;;;5006690;28;20046;-78
2023/12/06 04:23:25;;;;;;;0.40;0.40;;;;;;;;;;5005964;28;20058;-79
2023/12/06 04:25:52;;;;;;;0.10;0.10;;;;;;;;;;5007168;28;20055;-79
2023/12/06 04:28:18;;;;;;;0.32;0.32;;;;;;;;;;5009291;28;20508;-79
2023/12/06 04:30:45;;;;;;;1.17;0.90;;;;;;;;;;4992698;28;20082;-80
2023/12/06 04:33:11;;;;;;;0.10;0.10;;;;;;;;;;5000493;28;20090;-79
2023/12/06 04:35:38;;;;;;;0.10;0.10;;;;;;;;;;5005160;28;20102;-77
2023/12/06 04:38:04;;;;;;;0.10;0.10;;;;;;;;;;4994374;28;20059;-77
2023/12/06 04:40:30;;;;;;;0.10;0.10;;;;;;;;;;5006799;28;20527;-77
2023/12/06 04:42:57;;;;;;;0.10;0.10;;;;;;;;;;5005494;28;20054;-79
2023/12/06 04:45:23;;;;;;;0.10;0.10;;;;;;;;;;5007914;28;20039;-78
2023/12/06 04:47:50;;;;;;;0.10;0.10;;;;;;;;;;5010667;28;20110;-78
2023/12/06 04:50:16;;;;;;;0.10;0.10;;;;;;;;;;5006507;28;20059;-76
2023/12/06 04:52:43;;;;;;;0.10;0.10;;;;;;;;;;5008201;28;20077;-76
2023/12/06 04:55:09;;;;;;;0.10;0.10;;;;;;;;;;5002673;28;20130;-78
2023/12/06 04:57:36;;;;;;;0.55;0.55;;;;;;;;;;4990720;28;20050;-78
2023/12/06 05:00:04;;;;;;;0.98;0.98;;;;;;;;;;5007202;28;20520;-76
2023/12/06 05:02:31;;;;;;;0.20;0.20;;;;;;;;;;5000958;28;20157;-76
2023/12/06 05:04:58;;;;;;;0.10;0.10;;;;;;;;;;4986584;28;20058;-76
2023/12/06 05:07:24;;;;;;;0.10;0.10;;;;;;;;;;5013358;28;20054;-79
2023/12/06 05:09:51;;;;;;;1.67;1.30;;;;;;;;;;5011145;28;20054;-79
2023/12/06 05:12:18;;;;;;;0.10;0.10;;;;;;;;;;5008004;28;20031;-76
2023/12/06 05:14:44;;;;;;;0.10;0.10;;;;;;;;;;4984294;28;20057;-76
2023/12/06 05:17:11;;;;;;;0.10;0.10;;;;;;;;;;4981192;28;20058;-76
2023/12/06 05:19:37;;;;;;;1.27;1.20;;;;;;;;;;5010436;28;20056;-78
2023/12/06 05:22:06;;;;;;;0.45;0.45;;;;;;;;;;5002242;28;20054;-79
2023/12/06 05:24:33;;;;;;;0.10;0.10;;;;;;;;;;5000437;28;20050;-77
2023/12/06 05:27:00;;;;;;;0.10;0.10;;;;;;;;;;5013202;28;20050;-79
2023/12/06 05:29:28;;;;;;;0.10;0.10;;;;;;;;;;5007221;28;20057;-76
2023/12/06 05:31:55;;;;;;;0.10;0.10;;;;;;;;;;5012544;28;20057;-78
2023/12/06 05:34:21;;;;;;;1.67;1.52;;;;;;;;;;5004004;28;20136;-79
2023/12/06 05:36:48;;;;;;;0.30;0.30;;;;;;;;;;4997961;28;20055;-79
2023/12/06 05:39:15;;;;;;;0.10;0.10;;;;;;;;;;4998572;28;20054;-79
2023/12/06 05:41:41;;;;;;;0.10;0.10;;;;;;;;;;5009974;28;20038;-75
2023/12/06 05:44:08;;;;;;;0.10;0.10;;;;;;;;;;5008146;28;20540;-77
2023/12/06 05:46:34;;;;;;;0.20;0.20;;;;;;;;;;5009995;28;20736;-78
2023/12/06 05:49:00;;;;;;;0.10;0.10;;;;;;;;;;5005307;28;20058;-78
2023/12/06 05:51:27;;;;;;;0.10;0.10;;;;;;;;;;5003830;28;20059;-79
2023/12/06 05:53:55;;;;;;;1.23;1.20;;;;;;;;;;5010421;28;20504;-79
2023/12/06 05:56:21;;;;;;;0.10;0.10;;;;;;;;;;5004596;28;20206;-79
2023/12/06 05:58:47;;;;;;;0.25;0.25;;;;;;;;;;4990258;28;20053;-76
2023/12/06 06:01:14;;;;;;;1.15;1.15;;;;;;;;;;5007535;28;20081;-79
2023/12/06 06:03:40;;;;;;;0.10;0.10;;;;;;;;;;5002495;28;20114;-79
2023/12/06 06:06:07;;;;;;;0.10;0.10;;;;;;;;;;4979987;28;20077;-77
2023/12/06 06:08:35;;;;;;;0.10;0.10;;;;;;;;;;5007802;28;20065;-79
2023/12/06 06:11:02;;;;;;;0.10;0.10;;;;;;;;;;5007641;28;20859;-78
2023/12/06 06:13:29;;;;;;;0.30;0.30;;;;;;;;;;5005419;28;20887;-79
2023/12/06 06:15:56;;;;;;;0.10;0.10;;;;;;;;;;4994053;28;20410;-79
2023/12/06 06:18:22;;;;;;;7.75;2.83;;;;;;;;;;5007345;28;20086;-78
2023/12/06 06:20:49;;;;;;;0.20;0.20;;;;;;;;;;5006612;28;20137;-79
2023/12/06 06:23:15;;;;;;;0.10;0.10;;;;;;;;;;5010588;28;20054;-77
2023/12/06 06:25:42;;;;;;;0.10;0.10;;;;;;;;;;5012991;28;20050;-78
2023/12/06 06:28:08;;;;;;;0.10;0.10;;;;;;;;;;5010160;28;20058;-78
2023/12/06 06:30:35;;;;;;;0.10;0.10;;;;;;;;;;5005591;28;20057;-78
2023/12/06 06:33:01;;;;;;;0.10;0.10;;;;;;;;;;5012404;28;20059;-79
2023/12/06 06:35:27;;;;;;;0.20;0.20;;;;;;;;;;5003738;28;21961;-76
2023/12/06 06:37:54;;;;;;;0.10;0.10;;;;;;;;;;5005439;28;20061;-75
2023/12/06 06:40:22;;;;;;;0.10;0.10;;;;;;;;;;5003806;28;20864;-76
2023/12/06 06:42:49;;;;;;;0.10;0.10;;;;;;;;;;5011801;28;20054;-78
2023/12/06 06:45:15;;;;;;;0.10;0.10;;;;;;;;;;5009155;28;20045;-78
2023/12/06 06:47:42;;;;;;;0.10;0.10;;;;;;;;;;5009006;28;20141;-78
2023/12/06 06:50:08;;;;;;;0.73;0.73;;;;;;;;;;5008203;28;20076;-77
2023/12/06 06:52:35;;;;;;;0.13;0.13;;;;;;;;;;5000661;28;20055;-77
2023/12/06 06:55:01;;;;;;;0.10;0.10;;;;;;;;;;5006943;28;20608;-78
2023/12/06 06:57:27;;;;;;;0.20;0.20;;;;;;;;;;5009633;28;20050;-77
2023/12/06 06:59:54;;;;;;;0.10;0.10;;;;;;;;;;5008738;28;21770;-78
2023/12/06 07:02:21;;;;;;;1.45;1.35;;;;;;;;;;4997362;28;20074;-78
2023/12/06 07:04:50;;;;;;;0.10;0.10;;;;;;;;;;5011279;28;20132;-78
2023/12/06 07:07:18;;;;;;;0.10;0.10;;;;;;;;;;4999701;28;20062;-77
2023/12/06 07:09:44;;;;;;;0.10;0.10;;;;;;;;;;5008707;28;20508;-77
2023/12/06 07:12:11;;;;;;;0.10;0.10;;;;;;;;;;5000896;28;20074;-78
2023/12/06 07:14:37;;;;;;;0.10;0.10;;;;;;;;;;5010694;28;20119;-78
2023/12/06 07:17:04;;;;;;;0.10;0.10;;;;;;;;;;5003760;28;20051;-78
2023/12/06 07:19:30;;;;;;;0.10;0.10;;;;;;;;;;5004762;28;20681;-74
2023/12/06 07:21:57;;;;;;;0.20;0.20;;;;;;;;;;4994483;28;20834;-78
2023/12/06 07:24:23;;;;;;;0.10;0.10;;;;;;;;;;5011287;28;20058;-78
2023/12/06 07:26:51;;;;;;;0.10;0.10;;;;;;;;;;5004785;28;20050;-78
2023/12/06 07:29:17;;;;;;;0.20;0.20;;;;;;;;;;4989909;28;20085;-76
2023/12/06 07:31:43;;;;;;;0.20;0.20;;;;;;;;;;5005503;28;20061;-77
2023/12/06 07:34:10;;;;;;;0.10;0.10;;;;;;;;;;4981792;28;20150;-77
2023/12/06 07:36:46;;;;;;;0.47;0.47;;;;;;;;;;5004208;28;20133;-77
2023/12/06 07:39:14;;;;;;;0.10;0.10;;;;;;;;;;5000908;28;20054;-78
2023/12/06 07:41:41;;;;;;;0.10;0.10;;;;;;;;;;4999681;28;20110;-74
2023/12/06 07:44:08;;;;;;;0.10;0.10;;;;;;;;;;5001281;28;20101;-78
2023/12/06 07:46:34;;;;;;;0.10;0.10;;;;;;;;;;5001402;28;20050;-78
2023/12/06 07:49:00;;;;;;;0.10;0.10;;;;;;;;;;5009305;28;20710;-76
2023/12/06 07:51:27;;;;;;;0.10;0.10;;;;;;;;;;4999086;28;20066;-77
2023/12/06 07:53:56;;;;;;;0.10;0.10;;;;;;;;;;5006920;28;20062;-77
2023/12/06 07:56:22;;;;;;;0.10;0.10;;;;;;;;;;4993127;28;20051;-77
2023/12/06 07:58:56;;;;;;;0.20;0.20;;;;;;;;;;5001371;28;20052;-78
2023/12/06 08:01:24;;;;;;;0.10;0.10;;;;;;;;;;5001991;28;20063;-77
2023/12/06 08:03:50;;;;;;;0.20;0.20;;;;;;;;;;5007527;28;21317;-77
2023/12/06 08:06:18;;;;;;;1.45;1.35;;;;;;;;;;5002456;28;20138;-76
2023/12/06 08:08:44;;;;;;;0.10;0.10;;;;;;;;;;4995212;28;20114;-77
2023/12/06 08:11:10;;;;;;;0.10;0.10;;;;;;;;;;5004386;28;21142;-77
2023/12/06 08:13:37;;;;;;;0.10;0.10;;;;;;;;;;5006329;28;20081;-77
2023/12/06 08:16:03;;;;;;;0.10;0.10;;;;;;;;;;5008722;28;20062;-78
2023/12/06 08:18:30;;;;;;;0.10;0.10;;;;;;;;;;5001729;28;20050;-77
2023/12/06 08:20:57;;;;;;;4.57;3.45;;;;;;;;;;5007075;28;20054;-78
2023/12/06 08:23:23;;;;;;;0.10;0.10;;;;;;;;;;4999163;28;20050;-77
2023/12/06 08:25:50;;;;;;;0.10;0.10;;;;;;;;;;4998322;28;20066;-77
2023/12/06 08:28:16;;;;;;;0.10;0.10;;;;;;;;;;5006123;28;20082;-76
2023/12/06 08:30:43;;;;;;;0.10;0.10;;;;;;;;;;5003418;28;20062;-76
2023/12/06 08:33:10;;;;;;;0.20;0.20;;;;;;;;;;4999530;28;20105;-78
2023/12/06 08:35:36;;;;;;;0.10;0.10;;;;;;;;;;5011310;28;20063;-76
2023/12/06 08:38:03;;;;;;;0.10;0.10;;;;;;;;;;5008123;28;20101;-78
2023/12/06 08:40:30;;;;;;;0.10;0.10;;;;;;;;;;4984742;28;20051;-79
2023/12/06 08:42:56;;;;;;;0.10;0.10;;;;;;;;;;4994440;28;20168;-78
2023/12/06 08:45:23;;;;;;;0.20;0.20;;;;;;;;;;5001933;28;21369;-80
2023/12/06 08:47:49;;;;;;;0.10;0.10;;;;;;;;;;4996820;28;20057;-75
2023/12/06 08:50:16;;;;;;;0.10;0.10;;;;;;;;;;4986415;28;20595;-76
2023/12/06 08:52:44;;;;;;;0.10;0.10;;;;;;;;;;5000582;28;20059;-76
2023/12/06 08:55:11;;;;;;;0.10;0.10;;;;;;;;;;5002660;28;20088;-76
2023/12/06 08:57:38;;;;;;;0.10;0.10;;;;;;;;;;4996144;28;20117;-76
2023/12/06 09:00:09;;;;;;;0.10;0.10;;;;;;;;;;5005182;28;20062;-77
2023/12/06 09:02:36;;;;;;;0.10;0.10;;;;;;;;;;5001890;28;20054;-78
2023/12/06 09:05:02;;;;;;;1.42;1.35;;;;;;;;;;5003224;28;20082;-78
2023/12/06 09:07:29;;;;;;;0.73;0.73;;;;;;;;;;4996614;28;20110;-78
2023/12/06 09:09:55;;;;;;;0.10;0.10;;;;;;;;;;5001932;28;20055;-79
2023/12/06 09:12:22;;;;;;;0.13;0.13;;;;;;;;;;4995833;28;20050;-80
2023/12/06 09:14:48;;;;;;;0.30;0.30;;;;;;;;;;5008500;28;20058;-79
2023/12/06 09:17:14;;;;;;;0.10;0.10;;;;;;;;;;5001979;28;20054;-78
2023/12/06 09:19:41;;;;;;;0.10;0.10;;;;;;;;;;5003882;28;20054;-77
2023/12/06 09:22:07;;;;;;;0.10;0.10;;;;;;;;;;5000321;28;21000;-79
2023/12/06 09:24:34;;;;;;;1.42;0.98;;;;;;;;;;4998861;28;20547;-79
2023/12/06 09:27:01;;;;;;;5.20;4.80;;;;;;;;;;4992000;28;20515;-78
2023/12/06 09:29:27;;;;;;;0.10;0.10;;;;;;;;;;5001130;28;20047;-78
2023/12/06 09:31:54;;;;;;;1.95;1.85;;;;;;;;;;4990103;28;20122;-79
2023/12/06 09:34:20;;;;;;;0.47;0.47;;;;;;;;;;5005574;28;20086;-79
2023/12/06 09:37:02;;;;;;;1.85;1.75;;;;;;;;;;4982851;28;20603;-77
2023/12/06 09:39:29;;;;;;;2.28;1.45;;;;;;;;;;5003893;28;20054;-79
2023/12/06 09:41:56;;;;;;;6.35;5.82;;;;;;;;;;5003273;28;20063;-79
2023/12/06 09:44:22;;;;;;;3.22;2.92;;;;;;;;;;5001361;28;20149;-79
2023/12/06 09:49:18;;;;;;;0.20;0.20;;;;;;;;;;4961710;28;20047;-81
2023/12/06 09:51:44;;;;;;;0.10;0.10;;;;;;;;;;4962713;28;20067;-81
2023/12/06 09:54:11;;;;;;;0.25;0.25;;;;;;;;;;4964147;28;20062;-79
2023/12/06 09:56:38;;;;;;;2.35;2.20;;;;;;;;;;4964340;28;20035;-80
2023/12/06 09:59:04;;;;;;;0.38;0.38;;;;;;;;;;4963664;28;20100;-80
2023/12/06 10:01:30;;;;;;;0.10;0.10;;;;;;;;;;4948685;28;20154;-81
2023/12/06 10:03:57;;;;;;;1.95;1.85;;;;;;;;;;4948306;28;20047;-81
2023/12/06 10:06:23;;;;;;;0.20;0.20;;;;;;;;;;4965903;28;20055;-81
2023/12/06 10:08:54;;;;;;;2.38;2.17;;;;;;;;;;4968244;28;20047;-80
2023/12/06 10:11:23;;;;;;;0.10;0.10;;;;;;;;;;4966814;28;20063;-80
2023/12/06 10:13:51;;;;;;;0.10;0.10;;;;;;;;;;4962745;28;20051;-81
2023/12/06 10:16:19;;;;;;;0.80;0.80;;;;;;;;;;4941971;28;21067;-80
2023/12/06 10:18:47;;;;;;;0.10;0.10;;;;;;;;;;4942289;28;20407;-80
2023/12/06 10:21:14;;;;;;;0.10;0.10;;;;;;;;;;4961261;28;20064;-81
2023/12/06 10:23:42;;;;;;;0.55;0.55;;;;;;;;;;4943619;28;20056;-80
2023/12/06 10:26:15;;;;;;;0.10;0.10;;;;;;;;;;4961785;28;21484;-79
2023/12/06 10:28:41;;;;;;;0.10;0.10;;;;;;;;;;4960189;28;20067;-79
2023/12/06 10:31:08;;;;;;;0.10;0.10;;;;;;;;;;4961000;28;20158;-81
2023/12/06 10:33:35;;;;;;;0.10;0.10;;;;;;;;;;4942388;28;20075;-80
2023/12/06 10:36:05;;;;;;;0.10;0.10;;;;;;;;;;4946084;28;20052;-80
2023/12/06 10:38:32;;;;;;;0.10;0.10;;;;;;;;;;4964717;28;21060;-82
2023/12/06 10:40:59;;;;;;;0.20;0.20;;;;;;;;;;4947363;28;20071;-81
2023/12/06 10:43:26;;;;;;;0.10;0.10;;;;;;;;;;4947025;28;20051;-80
2023/12/06 10:45:53;;;;;;;0.13;0.13;;;;;;;;;;4949939;28;20056;-82
2023/12/06 10:48:21;;;;;;;0.15;0.15;;;;;;;;;;4962172;28;20070;-80
2023/12/06 10:50:49;;;;;;;1.35;0.82;;;;;;;;;;4964259;28;20618;-80
2023/12/06 10:53:17;;;;;;;2.63;0.57;;;;;;;;;;4950845;28;20063;-81
2023/12/06 10:55:46;;;;;;;0.10;0.10;;;;;;;;;;4961504;28;20092;-81
2023/12/06 10:58:15;;;;;;;0.10;0.10;;;;;;;;;;4947817;28;20205;-80
2023/12/06 11:00:42;;;;;;;0.10;0.10;;;;;;;;;;4961673;28;20099;-82
2023/12/06 11:03:12;;;;;;;0.40;0.40;;;;;;;;;;4964491;28;20048;-81
2023/12/06 11:05:41;;;;;;;0.10;0.10;;;;;;;;;;4948553;28;20059;-82
2023/12/06 11:08:26;;;;;;;0.10;0.10;;;;;;;;;;4960076;28;20071;-82
2023/12/06 11:10:52;;;;;;;0.10;0.10;;;;;;;;;;4948143;28;20143;-82
2023/12/06 11:13:19;;;;;;;0.30;0.30;;;;;;;;;;4968456;28;20893;-81
2023/12/06 11:16:00;;;;;;;0.10;0.10;;;;;;;;;;4962826;28;20928;-81
2023/12/06 11:18:32;;;;;;;0.10;0.10;;;;;;;;;;4975371;28;20067;-80
2023/12/06 11:20:59;;;;;;;0.57;0.57;;;;;;;;;;4954420;28;20067;-82
2023/12/06 11:23:27;;;;;;;0.10;0.10;;;;;;;;;;4952260;28;20063;-82
2023/12/06 11:25:56;;;;;;;0.10;0.10;;;;;;;;;;4967958;28;20066;-80
2023/12/06 11:28:22;;;;;;;10.02;1.25;;;;;;;;;;4971201;28;20221;-82
2023/12/06 11:30:50;;;;;;;0.10;0.10;;;;;;;;;;4970030;28;20139;-82
2023/12/06 11:33:17;;;;;;;0.10;0.10;;;;;;;;;;4957478;28;20056;-80
2023/12/06 11:35:44;;;;;;;0.40;0.40;;;;;;;;;;4970072;28;20727;-81
2023/12/06 11:38:11;;;;;;;0.10;0.10;;;;;;;;;;4965415;28;20694;-82
2023/12/06 11:40:47;;;;;;;0.10;0.10;;;;;;;;;;4964964;28;20063;-80
2023/12/06 11:43:14;;;;;;;0.10;0.10;;;;;;;;;;4966573;28;20052;-81
2023/12/06 11:45:41;;;;;;;0.22;0.20;;;;;;;;;;4949315;28;20067;-82
2023/12/06 11:48:11;;;;;;;0.75;0.75;;;;;;;;;;4964763;28;20480;-81
2023/12/06 11:50:44;;;;;;;0.10;0.10;;;;;;;;;;4964951;28;20059;-81
2023/12/06 11:53:11;;;;;;;0.20;0.20;;;;;;;;;;4966769;28;20044;-81
2023/12/06 11:55:39;;;;;;;0.40;0.40;;;;;;;;;;4965193;28;20067;-81
2023/12/06 11:58:06;;;;;;;0.10;0.10;;;;;;;;;;4950512;28;20051;-80
2023/12/06 12:00:34;;;;;;;2.17;1.65;;;;;;;;;;4953599;28;20052;-82
2023/12/06 12:03:02;;;;;;;0.38;0.38;;;;;;;;;;4967075;28;20139;-81
2023/12/06 12:05:30;;;;;;;0.10;0.10;;;;;;;;;;4951943;28;20488;-82
2023/12/06 12:07:57;;;;;;;0.10;0.10;;;;;;;;;;4951754;28;20051;-80
2023/12/06 12:10:24;;;;;;;0.30;0.30;;;;;;;;;;4952992;28;20067;-82
2023/12/06 12:12:51;;;;;;;0.10;0.10;;;;;;;;;;4965840;28;20091;-82
2023/12/06 12:15:18;;;;;;;0.10;0.10;;;;;;;;;;4951304;28;20151;-82
2023/12/06 12:17:44;;;;;;;0.65;0.52;;;;;;;;;;4951482;28;20261;-79
2023/12/06 12:20:12;;;;;;;0.10;0.10;;;;;;;;;;4960328;28;20879;-80
2023/12/06 12:22:49;;;;;;;0.10;0.10;;;;;;;;;;4949536;28;21165;-82
2023/12/06 12:25:16;;;;;;;0.10;0.10;;;;;;;;;;4947171;28;20055;-81
2023/12/06 12:27:46;;;;;;;0.10;0.10;;;;;;;;;;4945071;28;20063;-80
2023/12/06 12:30:13;;;;;;;;;;;;;;;;;;4966010;28;20051;-80
2023/12/06 12:32:42;;;;;;;0.10;0.10;;;;;;;;;;4952936;28;45432;-80
2023/12/06 12:35:09;;;;;;;0.10;0.10;;;;;;;;;;4961783;28;20080;-80
2023/12/06 12:37:36;;;;;;;0.10;0.10;;;;;;;;;;4953039;28;20103;-80
2023/12/06 12:40:03;;;;;;;0.10;0.10;;;;;;;;;;4953604;28;20036;-79
2023/12/06 12:42:29;;;;;;;1.10;0.73;;;;;;;;;;4969041;28;20125;-79
2023/12/06 12:44:56;;;;;;;0.20;0.20;;;;;;;;;;4968253;28;20580;-78
2023/12/06 12:47:22;;;;;;;0.10;0.10;;;;;;;;;;4961869;28;20070;-79
2023/12/06 12:49:50;;;;;;;0.10;0.10;;;;;;;;;;4949637;28;20773;-79
2023/12/06 12:52:17;;;;;;;0.20;0.20;;;;;;;;;;4964256;28;20052;-79
2023/12/06 12:54:43;;;;;;;0.10;0.10;;;;;;;;;;4966660;28;20062;-78
2023/12/06 12:57:11;;;;;;;0.10;0.10;;;;;;;;;;4968324;28;20735;-79
2023/12/06 12:59:40;;;;;;;0.10;0.10;;;;;;;;;;4951998;28;20047;-79
2023/12/06 13:02:07;;;;;;;0.50;0.50;;;;;;;;;;4966850;28;20059;-78
2023/12/06 13:04:33;;;;;;;0.17;0.17;;;;;;;;;;4967672;28;20060;-78
2023/12/06 13:07:01;;;;;;;0.10;0.10;;;;;;;;;;4946336;28;20944;-79
2023/12/06 13:09:27;;;;;;;0.20;0.20;;;;;;;;;;4936918;28;20055;-78
2023/12/06 13:11:54;;;;;;;0.10;0.10;;;;;;;;;;4959613;28;20063;-80
2023/12/06 13:14:20;;;;;;;0.13;0.13;;;;;;;;;;4960383;28;20091;-79
2023/12/06 13:16:49;;;;;;;0.10;0.10;;;;;;;;;;4943842;28;20063;-79
2023/12/06 13:19:16;;;;;;;0.20;0.20;;;;;;;;;;4950345;28;20115;-79
2023/12/06 13:21:42;;;;;;;0.10;0.10;;;;;;;;;;4945549;28;20569;-79
2023/12/06 13:24:09;;;;;;;0.10;0.10;;;;;;;;;;4948757;28;20059;-79
2023/12/06 13:26:48;;;;;;;;;;;;;;;;;;;;;
2023/12/06 13:29:43;;;;;;;0.10;0.10;;;;;;;;;;4951761;28;20060;-80
2023/12/06 13:32:25;;;;;;;;;;;;;;;;;;;;;
2023/12/06 13:34:59;;;;;;;0.13;0.13;;;;;;;;;;4949027;28;20138;-77
2023/12/06 13:37:25;;;;;;;0.10;0.10;;;;;;;;;;4957258;28;20522;-79
2023/12/06 13:39:52;;;;;;;0.10;0.10;;;;;;;;;;4948115;28;20603;-79
2023/12/06 13:42:19;;;;;;;0.10;0.10;;;;;;;;;;4949530;28;20112;-79
2023/12/06 13:44:45;;;;;;;0.50;0.50;;;;;;;;;;4963960;28;20063;-79
2023/12/06 13:47:12;;;;;;;0.10;0.10;;;;;;;;;;4967673;28;20052;-79
2023/12/06 13:49:38;;;;;;;5.47;1.75;;;;;;;;;;4957013;28;20051;-79
2023/12/06 13:52:05;;;;;;;0.10;0.10;;;;;;;;;;4967236;28;20070;-79
2023/12/06 13:54:34;;;;;;;0.10;0.10;;;;;;;;;;4966171;28;20059;-79
2023/12/06 13:57:01;;;;;;;0.38;0.38;;;;;;;;;;4972979;28;20055;-80
2023/12/06 13:59:28;;;;;;;0.10;0.10;;;;;;;;;;4977273;28;20169;-80
2023/12/06 14:01:55;;;;;;;0.10;0.10;;;;;;;;;;4982530;28;20047;-79
2023/12/06 14:04:21;;;;;;;0.10;0.10;;;;;;;;;;4973490;28;20056;-79
2023/12/06 14:06:48;;;;;;;0.10;0.10;;;;;;;;;;4973015;28;20059;-80
2023/12/06 14:09:15;;;;;;;0.10;0.10;;;;;;;;;;4967850;28;20054;-80
2023/12/06 14:11:44;;;;;;;0.10;0.10;;;;;;;;;;4970058;28;20057;-80
2023/12/06 14:14:10;;;;;;;0.10;0.10;;;;;;;;;;4971359;28;20801;-79
2023/12/06 14:16:36;;;;;;;0.10;0.10;;;;;;;;;;4958289;28;20122;-80
2023/12/06 14:19:03;;;;;;;0.10;0.10;;;;;;;;;;4968613;28;20063;-79
2023/12/06 14:21:30;;;;;;;0.10;0.10;;;;;;;;;;4970744;28;20505;-80
2023/12/06 14:23:56;;;;;;;0.10;0.10;;;;;;;;;;4966553;28;20147;-79
2023/12/06 14:26:23;;;;;;;0.10;0.10;;;;;;;;;;4969768;28;20808;-80
2023/12/06 14:28:49;;;;;;;0.10;0.10;;;;;;;;;;4969647;28;20058;-79
2023/12/06 14:31:15;;;;;;;0.40;0.40;;;;;;;;;;4947577;28;21301;-79
2023/12/06 14:33:42;;;;;;;0.10;0.10;;;;;;;;;;4961230;28;20083;-80
2023/12/06 14:36:10;;;;;;;0.10;0.10;;;;;;;;;;4968683;28;20057;-80
2023/12/06 14:38:37;;;;;;;0.10;0.10;;;;;;;;;;4951642;28;20071;-80
2023/12/06 14:41:03;;;;;;;0.10;0.10;;;;;;;;;;4963052;28;20167;-80
2023/12/06 14:43:29;;;;;;;0.10;0.10;;;;;;;;;;4954597;28;20055;-80
2023/12/06 14:45:57;;;;;;;0.10;0.10;;;;;;;;;;4950657;28;20044;-80
2023/12/06 14:48:24;;;;;;;0.10;0.10;;;;;;;;;;4967972;28;20202;-80